sensor_id;sensor_type;location;lat;lon;timestamp;temperature;humidity
19952;DHT22;10137;49.406;19.484;2023-04-15T00:01:34;6.20;99.90
19952;DHT22;10137;49.406;19.484;2023-04-15T00:04:01;6.20;99.90
19952;DHT22;10137;49.406;19.484;2023-04-15T00:06:30;6.30;99.90
19952;DHT22;10137;49.406;19.484;2023-04-15T00:08:58;6.30;99.90
19952;DHT22;10137;49.406;19.484;2023-04-15T00:11:26;6.40;99.90
19952;DHT22;10137;49.406;19.484;2023-04-15T00:13:54;6.40;99.90
19952;DHT22;10137;49.406;19.484;2023-04-15T00:16:23;6.30;99.90
19952;DHT22;10137;49.406;19.484;2023-04-15T00:18:51;6.30;99.90
19952;DHT22;10137;49.406;19.484;2023-04-15T00:21:19;6.40;99.90
19952;DHT22;10137;49.406;19.484;2023-04-15T00:23:48;6.50;99.90
19952;DHT22;10137;49.406;19.484;2023-04-15T00:26:19;6.50;99.90
19952;DHT22;10137;49.406;19.484;2023-04-15T00:28:47;6.40;99.90
19952;DHT22;10137;49.406;19.484;2023-04-15T00:31:15;6.50;99.90
19952;DHT22;10137;49.406;19.484;2023-04-15T00:33:45;6.50;99.90
19952;DHT22;10137;49.406;19.484;2023-04-15T00:36:13;6.40;99.90
19952;DHT22;10137;49.406;19.484;2023-04-15T00:38:41;6.30;99.90
19952;DHT22;10137;49.406;19.484;2023-04-15T00:41:10;6.40;99.90
19952;DHT22;10137;49.406;19.484;2023-04-15T00:43:39;6.40;99.90
19952;DHT22;10137;49.406;19.484;2023-04-15T00:46:08;6.40;99.90
19952;DHT22;10137;49.406;19.484;2023-04-15T00:48:36;6.30;99.90
19952;DHT22;10137;49.406;19.484;2023-04-15T00:51:06;6.30;99.90
19952;DHT22;10137;49.406;19.484;2023-04-15T00:53:35;6.30;99.90
19952;DHT22;10137;49.406;19.484;2023-04-15T00:56:02;6.30;99.90
19952;DHT22;10137;49.406;19.484;2023-04-15T00:58:31;6.40;99.90
19952;DHT22;10137;49.406;19.484;2023-04-15T01:00:59;6.40;99.90
19952;DHT22;10137;49.406;19.484;2023-04-15T01:03:28;6.30;99.90
19952;DHT22;10137;49.406;19.484;2023-04-15T01:05:57;6.30;99.90
19952;DHT22;10137;49.406;19.484;2023-04-15T01:08:27;6.40;99.90
19952;DHT22;10137;49.406;19.484;2023-04-15T01:10:58;6.30;99.90
19952;DHT22;10137;49.406;19.484;2023-04-15T01:13:29;6.20;99.90
19952;DHT22;10137;49.406;19.484;2023-04-15T01:15:57;6.30;99.90
19952;DHT22;10137;49.406;19.484;2023-04-15T01:18:24;6.30;99.90
19952;DHT22;10137;49.406;19.484;2023-04-15T01:20:53;6.40;99.90
19952;DHT22;10137;49.406;19.484;2023-04-15T01:23:21;6.40;99.90
19952;DHT22;10137;49.406;19.484;2023-04-15T01:25:50;6.40;99.90
19952;DHT22;10137;49.406;19.484;2023-04-15T01:28:21;6.50;99.90
19952;DHT22;10137;49.406;19.484;2023-04-15T01:30:48;6.40;99.90
19952;DHT22;10137;49.406;19.484;2023-04-15T01:33:15;6.30;99.90
19952;DHT22;10137;49.406;19.484;2023-04-15T01:35:44;6.30;99.90
19952;DHT22;10137;49.406;19.484;2023-04-15T01:38:13;6.30;99.90
19952;DHT22;10137;49.406;19.484;2023-04-15T01:40:41;6.30;99.90
19952;DHT22;10137;49.406;19.484;2023-04-15T01:43:11;6.30;99.90
19952;DHT22;10137;49.406;19.484;2023-04-15T01:45:39;6.20;99.90
19952;DHT22;10137;49.406;19.484;2023-04-15T01:48:08;6.20;99.90
19952;DHT22;10137;49.406;19.484;2023-04-15T01:50:36;6.20;99.90
19952;DHT22;10137;49.406;19.484;2023-04-15T01:53:04;6.20;99.90
19952;DHT22;10137;49.406;19.484;2023-04-15T01:55:33;6.20;99.90
19952;DHT22;10137;49.406;19.484;2023-04-15T01:58:01;6.20;99.90
19952;DHT22;10137;49.406;19.484;2023-04-15T02:00:30;6.20;99.90
19952;DHT22;10137;49.406;19.484;2023-04-15T02:02:59;6.20;99.90
19952;DHT22;10137;49.406;19.484;2023-04-15T02:05:27;6.20;99.90
19952;DHT22;10137;49.406;19.484;2023-04-15T02:07:56;6.20;99.90
19952;DHT22;10137;49.406;19.484;2023-04-15T02:10:24;6.20;99.90
19952;DHT22;10137;49.406;19.484;2023-04-15T02:12:53;6.20;99.90
19952;DHT22;10137;49.406;19.484;2023-04-15T02:15:21;6.20;99.90
19952;DHT22;10137;49.406;19.484;2023-04-15T02:17:50;6.30;99.90
19952;DHT22;10137;49.406;19.484;2023-04-15T02:20:21;6.30;99.90
19952;DHT22;10137;49.406;19.484;2023-04-15T02:22:49;6.40;99.90
19952;DHT22;10137;49.406;19.484;2023-04-15T02:25:17;6.40;99.90
19952;DHT22;10137;49.406;19.484;2023-04-15T02:27:45;6.30;99.90
19952;DHT22;10137;49.406;19.484;2023-04-15T02:30:14;6.30;99.90
19952;DHT22;10137;49.406;19.484;2023-04-15T02:32:42;6.30;99.90
19952;DHT22;10137;49.406;19.484;2023-04-15T02:35:12;6.20;99.90
19952;DHT22;10137;49.406;19.484;2023-04-15T02:37:40;6.10;99.90
19952;DHT22;10137;49.406;19.484;2023-04-15T02:40:11;6.20;99.90
19952;DHT22;10137;49.406;19.484;2023-04-15T02:42:39;6.20;99.90
19952;DHT22;10137;49.406;19.484;2023-04-15T02:45:08;6.10;99.90
19952;DHT22;10137;49.406;19.484;2023-04-15T02:47:37;6.10;99.90
19952;DHT22;10137;49.406;19.484;2023-04-15T02:50:10;6.10;99.90
19952;DHT22;10137;49.406;19.484;2023-04-15T02:52:40;6.10;99.90
19952;DHT22;10137;49.406;19.484;2023-04-15T02:55:09;6.20;99.90
19952;DHT22;10137;49.406;19.484;2023-04-15T02:57:37;6.30;99.90
19952;DHT22;10137;49.406;19.484;2023-04-15T03:00:07;6.30;99.90
19952;DHT22;10137;49.406;19.484;2023-04-15T03:02:38;6.10;99.90
19952;DHT22;10137;49.406;19.484;2023-04-15T03:05:11;5.90;99.90
19952;DHT22;10137;49.406;19.484;2023-04-15T03:07:41;6.00;99.90
19952;DHT22;10137;49.406;19.484;2023-04-15T03:10:09;6.00;99.90
19952;DHT22;10137;49.406;19.484;2023-04-15T03:12:38;6.10;99.90
19952;DHT22;10137;49.406;19.484;2023-04-15T03:15:08;6.10;99.90
19952;DHT22;10137;49.406;19.484;2023-04-15T03:17:37;6.20;99.90
19952;DHT22;10137;49.406;19.484;2023-04-15T03:20:05;6.30;99.90
19952;DHT22;10137;49.406;19.484;2023-04-15T03:22:34;6.30;99.90
19952;DHT22;10137;49.406;19.484;2023-04-15T03:25:05;6.30;99.90
19952;DHT22;10137;49.406;19.484;2023-04-15T03:27:33;6.30;99.90
19952;DHT22;10137;49.406;19.484;2023-04-15T03:30:00;6.30;99.90
19952;DHT22;10137;49.406;19.484;2023-04-15T03:32:28;6.20;99.90
19952;DHT22;10137;49.406;19.484;2023-04-15T03:35:00;6.00;99.90
19952;DHT22;10137;49.406;19.484;2023-04-15T03:37:28;5.90;99.90
19952;DHT22;10137;49.406;19.484;2023-04-15T03:39:56;5.90;99.90
19952;DHT22;10137;49.406;19.484;2023-04-15T03:42:26;5.90;99.90
19952;DHT22;10137;49.406;19.484;2023-04-15T03:44:54;5.80;99.90
19952;DHT22;10137;49.406;19.484;2023-04-15T03:47:22;5.90;99.90
19952;DHT22;10137;49.406;19.484;2023-04-15T03:49:50;5.90;99.90
19952;DHT22;10137;49.406;19.484;2023-04-15T03:52:19;6.00;99.90
19952;DHT22;10137;49.406;19.484;2023-04-15T03:54:47;6.00;99.90
19952;DHT22;10137;49.406;19.484;2023-04-15T03:57:15;6.00;99.90
19952;DHT22;10137;49.406;19.484;2023-04-15T03:59:43;6.00;99.90
19952;DHT22;10137;49.406;19.484;2023-04-15T04:02:12;6.00;99.90
19952;DHT22;10137;49.406;19.484;2023-04-15T04:04:40;6.00;99.90
19952;DHT22;10137;49.406;19.484;2023-04-15T04:07:14;6.00;99.90
19952;DHT22;10137;49.406;19.484;2023-04-15T04:09:42;6.00;99.90
19952;DHT22;10137;49.406;19.484;2023-04-15T04:12:10;5.90;99.90
19952;DHT22;10137;49.406;19.484;2023-04-15T04:14:38;6.00;99.90
19952;DHT22;10137;49.406;19.484;2023-04-15T04:17:08;6.00;99.90
19952;DHT22;10137;49.406;19.484;2023-04-15T04:19:37;6.00;99.90
19952;DHT22;10137;49.406;19.484;2023-04-15T04:22:05;6.00;99.90
19952;DHT22;10137;49.406;19.484;2023-04-15T04:24:33;6.00;99.90
19952;DHT22;10137;49.406;19.484;2023-04-15T04:27:01;6.00;99.90
19952;DHT22;10137;49.406;19.484;2023-04-15T04:29:29;6.10;99.90
19952;DHT22;10137;49.406;19.484;2023-04-15T04:31:58;6.00;99.90
19952;DHT22;10137;49.406;19.484;2023-04-15T04:34:28;6.10;99.90
19952;DHT22;10137;49.406;19.484;2023-04-15T04:36:55;6.30;99.90
19952;DHT22;10137;49.406;19.484;2023-04-15T04:39:23;6.40;99.90
19952;DHT22;10137;49.406;19.484;2023-04-15T04:41:50;6.40;99.90
19952;DHT22;10137;49.406;19.484;2023-04-15T04:44:20;6.40;99.90
19952;DHT22;10137;49.406;19.484;2023-04-15T04:46:51;6.40;99.90
19952;DHT22;10137;49.406;19.484;2023-04-15T04:49:19;6.50;99.90
19952;DHT22;10137;49.406;19.484;2023-04-15T04:51:49;6.50;99.90
19952;DHT22;10137;49.406;19.484;2023-04-15T04:54:18;6.60;99.90
19952;DHT22;10137;49.406;19.484;2023-04-15T04:56:47;6.60;99.90
19952;DHT22;10137;49.406;19.484;2023-04-15T04:59:15;6.70;99.90
19952;DHT22;10137;49.406;19.484;2023-04-15T05:01:44;6.80;99.90
19952;DHT22;10137;49.406;19.484;2023-04-15T05:04:11;6.90;99.90
19952;DHT22;10137;49.406;19.484;2023-04-15T05:06:39;6.80;99.90
19952;DHT22;10137;49.406;19.484;2023-04-15T05:09:08;6.90;99.90
19952;DHT22;10137;49.406;19.484;2023-04-15T05:11:36;6.90;99.90
19952;DHT22;10137;49.406;19.484;2023-04-15T05:14:05;6.90;99.90
19952;DHT22;10137;49.406;19.484;2023-04-15T05:16:33;6.80;99.90
19952;DHT22;10137;49.406;19.484;2023-04-15T05:19:01;6.80;99.90
19952;DHT22;10137;49.406;19.484;2023-04-15T05:21:29;6.80;99.90
19952;DHT22;10137;49.406;19.484;2023-04-15T05:23:58;6.80;99.90
19952;DHT22;10137;49.406;19.484;2023-04-15T05:26:28;6.80;99.90
19952;DHT22;10137;49.406;19.484;2023-04-15T05:28:55;6.80;99.90
19952;DHT22;10137;49.406;19.484;2023-04-15T05:31:22;6.90;99.90
19952;DHT22;10137;49.406;19.484;2023-04-15T05:33:50;6.90;99.90
19952;DHT22;10137;49.406;19.484;2023-04-15T05:36:19;6.90;99.90
19952;DHT22;10137;49.406;19.484;2023-04-15T05:38:46;6.90;99.90
19952;DHT22;10137;49.406;19.484;2023-04-15T05:41:17;6.90;99.90
19952;DHT22;10137;49.406;19.484;2023-04-15T05:43:51;6.90;99.90
19952;DHT22;10137;49.406;19.484;2023-04-15T05:46:21;6.90;99.90
19952;DHT22;10137;49.406;19.484;2023-04-15T05:48:49;7.00;99.90
19952;DHT22;10137;49.406;19.484;2023-04-15T05:51:18;7.00;99.90
19952;DHT22;10137;49.406;19.484;2023-04-15T05:53:46;7.10;99.90
19952;DHT22;10137;49.406;19.484;2023-04-15T05:56:14;7.10;99.90
19952;DHT22;10137;49.406;19.484;2023-04-15T05:58:42;7.20;99.90
19952;DHT22;10137;49.406;19.484;2023-04-15T06:01:12;7.40;99.90
19952;DHT22;10137;49.406;19.484;2023-04-15T06:03:40;7.70;99.90
19952;DHT22;10137;49.406;19.484;2023-04-15T06:06:08;7.80;99.90
19952;DHT22;10137;49.406;19.484;2023-04-15T06:08:36;8.00;99.90
19952;DHT22;10137;49.406;19.484;2023-04-15T06:11:05;8.10;99.90
19952;DHT22;10137;49.406;19.484;2023-04-15T06:13:33;8.20;99.90
19952;DHT22;10137;49.406;19.484;2023-04-15T06:16:02;8.30;99.90
19952;DHT22;10137;49.406;19.484;2023-04-15T06:18:31;8.50;99.90
19952;DHT22;10137;49.406;19.484;2023-04-15T06:21:00;8.60;99.90
19952;DHT22;10137;49.406;19.484;2023-04-15T06:23:28;8.80;99.90
19952;DHT22;10137;49.406;19.484;2023-04-15T06:25:57;9.10;99.90
19952;DHT22;10137;49.406;19.484;2023-04-15T06:28:25;9.20;99.90
19952;DHT22;10137;49.406;19.484;2023-04-15T06:30:53;9.30;99.90
19952;DHT22;10137;49.406;19.484;2023-04-15T06:33:21;9.30;99.90
19952;DHT22;10137;49.406;19.484;2023-04-15T06:35:51;9.30;99.90
19952;DHT22;10137;49.406;19.484;2023-04-15T06:38:19;9.10;99.90
19952;DHT22;10137;49.406;19.484;2023-04-15T06:40:47;9.20;99.90
19952;DHT22;10137;49.406;19.484;2023-04-15T06:43:15;9.30;99.90
19952;DHT22;10137;49.406;19.484;2023-04-15T06:45:44;9.30;99.90
19952;DHT22;10137;49.406;19.484;2023-04-15T06:48:12;9.40;99.90
19952;DHT22;10137;49.406;19.484;2023-04-15T06:50:40;9.40;99.90
19952;DHT22;10137;49.406;19.484;2023-04-15T06:53:14;9.40;99.90
19952;DHT22;10137;49.406;19.484;2023-04-15T06:55:45;9.50;99.90
19952;DHT22;10137;49.406;19.484;2023-04-15T06:58:13;9.70;99.90
19952;DHT22;10137;49.406;19.484;2023-04-15T07:00:42;9.90;99.90
19952;DHT22;10137;49.406;19.484;2023-04-15T07:03:11;10.10;99.90
19952;DHT22;10137;49.406;19.484;2023-04-15T07:05:40;10.20;99.90
19952;DHT22;10137;49.406;19.484;2023-04-15T07:08:10;10.30;99.90
19952;DHT22;10137;49.406;19.484;2023-04-15T07:10:38;10.30;99.90
19952;DHT22;10137;49.406;19.484;2023-04-15T07:13:07;10.20;99.90
19952;DHT22;10137;49.406;19.484;2023-04-15T07:15:35;10.20;99.90
19952;DHT22;10137;49.406;19.484;2023-04-15T07:18:03;10.20;99.90
19952;DHT22;10137;49.406;19.484;2023-04-15T07:20:32;10.20;99.90
19952;DHT22;10137;49.406;19.484;2023-04-15T07:23:00;10.00;99.90
19952;DHT22;10137;49.406;19.484;2023-04-15T07:25:31;9.90;99.90
19952;DHT22;10137;49.406;19.484;2023-04-15T07:27:59;10.00;99.90
19952;DHT22;10137;49.406;19.484;2023-04-15T07:30:28;9.90;99.90
19952;DHT22;10137;49.406;19.484;2023-04-15T07:32:57;9.80;99.90
19952;DHT22;10137;49.406;19.484;2023-04-15T07:35:26;9.70;99.90
19952;DHT22;10137;49.406;19.484;2023-04-15T07:37:55;9.60;99.90
19952;DHT22;10137;49.406;19.484;2023-04-15T07:40:24;9.50;99.90
19952;DHT22;10137;49.406;19.484;2023-04-15T07:42:55;9.50;99.90
19952;DHT22;10137;49.406;19.484;2023-04-15T07:45:24;9.50;99.90
19952;DHT22;10137;49.406;19.484;2023-04-15T07:47:53;9.50;99.90
19952;DHT22;10137;49.406;19.484;2023-04-15T07:50:22;9.60;99.90
19952;DHT22;10137;49.406;19.484;2023-04-15T07:52:50;9.70;99.90
19952;DHT22;10137;49.406;19.484;2023-04-15T07:55:19;9.70;99.90
19952;DHT22;10137;49.406;19.484;2023-04-15T07:57:49;9.80;99.90
19952;DHT22;10137;49.406;19.484;2023-04-15T08:00:19;9.80;99.90
19952;DHT22;10137;49.406;19.484;2023-04-15T08:02:47;9.80;99.90
19952;DHT22;10137;49.406;19.484;2023-04-15T08:05:15;9.80;99.90
19952;DHT22;10137;49.406;19.484;2023-04-15T08:07:44;9.80;99.90
19952;DHT22;10137;49.406;19.484;2023-04-15T08:10:13;9.80;99.90
19952;DHT22;10137;49.406;19.484;2023-04-15T08:12:41;9.80;99.90
19952;DHT22;10137;49.406;19.484;2023-04-15T08:15:10;9.90;99.90
19952;DHT22;10137;49.406;19.484;2023-04-15T08:17:40;9.90;99.90
19952;DHT22;10137;49.406;19.484;2023-04-15T08:20:09;10.00;99.90
19952;DHT22;10137;49.406;19.484;2023-04-15T08:22:38;10.10;99.90
19952;DHT22;10137;49.406;19.484;2023-04-15T08:25:08;10.20;99.90
19952;DHT22;10137;49.406;19.484;2023-04-15T08:27:36;10.20;99.90
19952;DHT22;10137;49.406;19.484;2023-04-15T08:30:06;10.10;99.90
19952;DHT22;10137;49.406;19.484;2023-04-15T08:32:34;10.30;99.90
19952;DHT22;10137;49.406;19.484;2023-04-15T08:35:05;10.30;99.90
19952;DHT22;10137;49.406;19.484;2023-04-15T08:37:33;10.30;99.90
19952;DHT22;10137;49.406;19.484;2023-04-15T08:40:02;10.60;99.90
19952;DHT22;10137;49.406;19.484;2023-04-15T08:42:31;10.70;99.90
19952;DHT22;10137;49.406;19.484;2023-04-15T08:45:08;11.00;99.90
19952;DHT22;10137;49.406;19.484;2023-04-15T08:47:37;11.40;99.90
19952;DHT22;10137;49.406;19.484;2023-04-15T08:50:09;11.60;99.90
19952;DHT22;10137;49.406;19.484;2023-04-15T08:52:38;11.80;99.90
19952;DHT22;10137;49.406;19.484;2023-04-15T08:55:07;12.20;98.60
19952;DHT22;10137;49.406;19.484;2023-04-15T08:57:38;12.30;95.90
19952;DHT22;10137;49.406;19.484;2023-04-15T09:00:07;12.40;94.90
19952;DHT22;10137;49.406;19.484;2023-04-15T09:02:36;12.50;93.70
19952;DHT22;10137;49.406;19.484;2023-04-15T09:05:06;12.60;93.10
19952;DHT22;10137;49.406;19.484;2023-04-15T09:07:35;12.80;93.60
19952;DHT22;10137;49.406;19.484;2023-04-15T09:10:04;12.80;91.80
19952;DHT22;10137;49.406;19.484;2023-04-15T09:12:35;12.80;91.50
19952;DHT22;10137;49.406;19.484;2023-04-15T09:15:04;13.00;91.00
19952;DHT22;10137;49.406;19.484;2023-04-15T09:17:33;12.80;87.40
19952;DHT22;10137;49.406;19.484;2023-04-15T09:20:12;12.70;82.80
19952;DHT22;10137;49.406;19.484;2023-04-15T09:22:43;12.90;81.50
19952;DHT22;10137;49.406;19.484;2023-04-15T09:25:29;12.70;80.20
19952;DHT22;10137;49.406;19.484;2023-04-15T09:28:00;12.60;79.30
19952;DHT22;10137;49.406;19.484;2023-04-15T09:30:29;12.50;80.70
19952;DHT22;10137;49.406;19.484;2023-04-15T09:32:58;12.30;80.30
19952;DHT22;10137;49.406;19.484;2023-04-15T09:35:28;12.30;81.50
19952;DHT22;10137;49.406;19.484;2023-04-15T09:38:03;12.20;83.10
19952;DHT22;10137;49.406;19.484;2023-04-15T09:40:32;12.30;84.20
19952;DHT22;10137;49.406;19.484;2023-04-15T09:43:01;12.50;84.30
19952;DHT22;10137;49.406;19.484;2023-04-15T09:45:29;12.50;85.70
19952;DHT22;10137;49.406;19.484;2023-04-15T09:47:59;12.40;85.40
19952;DHT22;10137;49.406;19.484;2023-04-15T09:50:41;12.20;83.90
19952;DHT22;10137;49.406;19.484;2023-04-15T09:53:10;12.10;85.80
19952;DHT22;10137;49.406;19.484;2023-04-15T09:55:39;12.10;86.30
19952;DHT22;10137;49.406;19.484;2023-04-15T09:58:08;12.10;83.60
19952;DHT22;10137;49.406;19.484;2023-04-15T10:00:37;12.20;83.80
19952;DHT22;10137;49.406;19.484;2023-04-15T10:03:05;12.10;83.50
19952;DHT22;10137;49.406;19.484;2023-04-15T10:05:34;12.60;87.60
19952;DHT22;10137;49.406;19.484;2023-04-15T10:08:04;12.90;82.90
19952;DHT22;10137;49.406;19.484;2023-04-15T10:10:34;13.30;83.40
19952;DHT22;10137;49.406;19.484;2023-04-15T10:13:02;13.50;79.40
19952;DHT22;10137;49.406;19.484;2023-04-15T10:15:31;13.80;79.80
19952;DHT22;10137;49.406;19.484;2023-04-15T10:18:00;14.10;77.80
19952;DHT22;10137;49.406;19.484;2023-04-15T10:20:31;14.10;76.40
19952;DHT22;10137;49.406;19.484;2023-04-15T10:23:00;14.10;76.20
19952;DHT22;10137;49.406;19.484;2023-04-15T10:25:28;14.00;76.00
19952;DHT22;10137;49.406;19.484;2023-04-15T10:27:59;14.10;75.10
19952;DHT22;10137;49.406;19.484;2023-04-15T10:30:27;13.70;71.90
19952;DHT22;10137;49.406;19.484;2023-04-15T10:32:57;13.20;72.80
19952;DHT22;10137;49.406;19.484;2023-04-15T10:35:26;13.10;73.40
19952;DHT22;10137;49.406;19.484;2023-04-15T10:37:56;12.90;74.30
19952;DHT22;10137;49.406;19.484;2023-04-15T10:40:27;12.80;75.50
19952;DHT22;10137;49.406;19.484;2023-04-15T10:43:00;12.80;76.30
19952;DHT22;10137;49.406;19.484;2023-04-15T10:45:32;12.60;75.20
19952;DHT22;10137;49.406;19.484;2023-04-15T10:48:02;12.50;75.00
19952;DHT22;10137;49.406;19.484;2023-04-15T10:50:31;12.40;75.30
19952;DHT22;10137;49.406;19.484;2023-04-15T10:53:02;12.50;77.50
19952;DHT22;10137;49.406;19.484;2023-04-15T10:55:32;12.50;78.10
19952;DHT22;10137;49.406;19.484;2023-04-15T10:58:02;12.30;77.00
19952;DHT22;10137;49.406;19.484;2023-04-15T11:00:31;12.30;78.50
19952;DHT22;10137;49.406;19.484;2023-04-15T11:03:05;12.50;79.80
19952;DHT22;10137;49.406;19.484;2023-04-15T11:05:51;12.70;79.80
19952;DHT22;10137;49.406;19.484;2023-04-15T11:08:20;13.00;81.40
19952;DHT22;10137;49.406;19.484;2023-04-15T11:11:08;13.00;80.70
19952;DHT22;10137;49.406;19.484;2023-04-15T11:13:47;12.80;79.70
19952;DHT22;10137;49.406;19.484;2023-04-15T11:16:14;12.90;81.40
19952;DHT22;10137;49.406;19.484;2023-04-15T11:18:53;13.00;83.60
19952;DHT22;10137;49.406;19.484;2023-04-15T11:21:24;13.00;82.50
19952;DHT22;10137;49.406;19.484;2023-04-15T11:23:53;13.00;80.30
19952;DHT22;10137;49.406;19.484;2023-04-15T11:26:25;13.00;80.40
19952;DHT22;10137;49.406;19.484;2023-04-15T11:28:54;13.00;82.50
19952;DHT22;10137;49.406;19.484;2023-04-15T11:31:26;12.90;80.90
19952;DHT22;10137;49.406;19.484;2023-04-15T11:33:55;12.90;82.10
19952;DHT22;10137;49.406;19.484;2023-04-15T11:36:26;12.90;82.70
19952;DHT22;10137;49.406;19.484;2023-04-15T11:38:56;13.00;79.70
19952;DHT22;10137;49.406;19.484;2023-04-15T11:41:26;13.10;81.90
19952;DHT22;10137;49.406;19.484;2023-04-15T11:43:56;13.00;78.30
19952;DHT22;10137;49.406;19.484;2023-04-15T11:46:28;13.20;79.70
19952;DHT22;10137;49.406;19.484;2023-04-15T11:48:57;13.30;79.70
19952;DHT22;10137;49.406;19.484;2023-04-15T11:51:25;13.30;80.30
19952;DHT22;10137;49.406;19.484;2023-04-15T11:53:59;13.40;80.30
19952;DHT22;10137;49.406;19.484;2023-04-15T11:56:27;13.40;79.50
19952;DHT22;10137;49.406;19.484;2023-04-15T11:58:57;13.50;80.30
19952;DHT22;10137;49.406;19.484;2023-04-15T12:01:35;13.60;80.70
19952;DHT22;10137;49.406;19.484;2023-04-15T12:04:10;13.50;75.20
19952;DHT22;10137;49.406;19.484;2023-04-15T12:06:38;13.60;75.10
19952;DHT22;10137;49.406;19.484;2023-04-15T12:09:11;13.70;73.40
19952;DHT22;10137;49.406;19.484;2023-04-15T12:11:42;13.70;73.50
19952;DHT22;10137;49.406;19.484;2023-04-15T12:14:20;13.60;73.50
19952;DHT22;10137;49.406;19.484;2023-04-15T12:16:50;13.70;73.20
19952;DHT22;10137;49.406;19.484;2023-04-15T12:19:23;13.70;72.80
19952;DHT22;10137;49.406;19.484;2023-04-15T12:21:53;13.70;72.10
19952;DHT22;10137;49.406;19.484;2023-04-15T12:24:24;13.70;74.30
19952;DHT22;10137;49.406;19.484;2023-04-15T12:26:54;13.60;72.80
19952;DHT22;10137;49.406;19.484;2023-04-15T12:29:26;13.60;72.60
19952;DHT22;10137;49.406;19.484;2023-04-15T12:31:56;13.50;72.50
19952;DHT22;10137;49.406;19.484;2023-04-15T12:34:28;13.50;71.90
19952;DHT22;10137;49.406;19.484;2023-04-15T12:36:58;13.40;71.80
19952;DHT22;10137;49.406;19.484;2023-04-15T12:39:29;13.30;71.70
19952;DHT22;10137;49.406;19.484;2023-04-15T12:41:58;13.20;72.60
19952;DHT22;10137;49.406;19.484;2023-04-15T12:44:28;12.80;79.60
19952;DHT22;10137;49.406;19.484;2023-04-15T12:46:56;12.30;84.00
19952;DHT22;10137;49.406;19.484;2023-04-15T12:49:25;11.90;87.70
19952;DHT22;10137;49.406;19.484;2023-04-15T12:51:55;11.40;90.50
19952;DHT22;10137;49.406;19.484;2023-04-15T12:54:23;11.40;92.20
19952;DHT22;10137;49.406;19.484;2023-04-15T12:56:53;11.40;93.50
19952;DHT22;10137;49.406;19.484;2023-04-15T12:59:21;11.40;95.60
19952;DHT22;10137;49.406;19.484;2023-04-15T13:01:51;11.20;98.20
19952;DHT22;10137;49.406;19.484;2023-04-15T13:04:20;11.00;99.90
19952;DHT22;10137;49.406;19.484;2023-04-15T13:06:48;10.90;99.90
19952;DHT22;10137;49.406;19.484;2023-04-15T13:09:16;10.80;99.90
19952;DHT22;10137;49.406;19.484;2023-04-15T13:11:45;10.60;99.90
19952;DHT22;10137;49.406;19.484;2023-04-15T13:14:13;10.60;99.90
19952;DHT22;10137;49.406;19.484;2023-04-15T13:16:41;10.50;99.90
19952;DHT22;10137;49.406;19.484;2023-04-15T13:19:11;10.50;99.90
19952;DHT22;10137;49.406;19.484;2023-04-15T13:21:38;10.50;99.90
19952;DHT22;10137;49.406;19.484;2023-04-15T13:24:07;10.30;99.90
19952;DHT22;10137;49.406;19.484;2023-04-15T13:26:36;10.00;99.90
19952;DHT22;10137;49.406;19.484;2023-04-15T13:29:04;10.00;99.90
19952;DHT22;10137;49.406;19.484;2023-04-15T13:31:32;9.90;99.90
19952;DHT22;10137;49.406;19.484;2023-04-15T13:34:01;9.90;99.90
19952;DHT22;10137;49.406;19.484;2023-04-15T13:36:30;9.80;99.90
19952;DHT22;10137;49.406;19.484;2023-04-15T13:38:59;9.60;99.90
19952;DHT22;10137;49.406;19.484;2023-04-15T13:41:27;9.40;99.90
19952;DHT22;10137;49.406;19.484;2023-04-15T13:43:55;9.20;99.90
19952;DHT22;10137;49.406;19.484;2023-04-15T13:46:24;9.00;99.90
19952;DHT22;10137;49.406;19.484;2023-04-15T13:48:52;8.80;99.90
19952;DHT22;10137;49.406;19.484;2023-04-15T13:51:21;8.50;99.90
19952;DHT22;10137;49.406;19.484;2023-04-15T13:53:50;8.40;99.90
19952;DHT22;10137;49.406;19.484;2023-04-15T13:56:18;8.30;99.90
19952;DHT22;10137;49.406;19.484;2023-04-15T13:58:47;8.20;99.90
19952;DHT22;10137;49.406;19.484;2023-04-15T14:01:15;8.20;99.90
19952;DHT22;10137;49.406;19.484;2023-04-15T14:03:43;8.30;99.90
19952;DHT22;10137;49.406;19.484;2023-04-15T14:06:12;8.50;99.90
19952;DHT22;10137;49.406;19.484;2023-04-15T14:08:40;8.50;99.90
19952;DHT22;10137;49.406;19.484;2023-04-15T14:11:09;8.70;99.90
19952;DHT22;10137;49.406;19.484;2023-04-15T14:13:37;8.70;99.90
19952;DHT22;10137;49.406;19.484;2023-04-15T14:16:06;8.70;99.90
19952;DHT22;10137;49.406;19.484;2023-04-15T14:18:34;8.70;99.90
19952;DHT22;10137;49.406;19.484;2023-04-15T14:21:06;8.80;99.90
19952;DHT22;10137;49.406;19.484;2023-04-15T14:23:35;8.80;99.90
19952;DHT22;10137;49.406;19.484;2023-04-15T14:26:04;8.70;99.90
19952;DHT22;10137;49.406;19.484;2023-04-15T14:28:34;8.90;99.90
19952;DHT22;10137;49.406;19.484;2023-04-15T14:31:03;9.00;99.90
19952;DHT22;10137;49.406;19.484;2023-04-15T14:33:31;9.10;99.90
19952;DHT22;10137;49.406;19.484;2023-04-15T14:36:00;9.20;99.90
19952;DHT22;10137;49.406;19.484;2023-04-15T14:38:28;9.30;99.90
19952;DHT22;10137;49.406;19.484;2023-04-15T14:40:57;9.40;99.90
19952;DHT22;10137;49.406;19.484;2023-04-15T14:43:25;9.50;99.90
19952;DHT22;10137;49.406;19.484;2023-04-15T14:45:55;9.70;99.90
19952;DHT22;10137;49.406;19.484;2023-04-15T14:48:23;9.70;99.90
19952;DHT22;10137;49.406;19.484;2023-04-15T14:50:52;9.80;99.90
19952;DHT22;10137;49.406;19.484;2023-04-15T14:53:20;9.80;99.90
19952;DHT22;10137;49.406;19.484;2023-04-15T14:55:48;10.00;99.90
19952;DHT22;10137;49.406;19.484;2023-04-15T14:58:16;10.10;99.90
19952;DHT22;10137;49.406;19.484;2023-04-15T15:00:45;10.10;99.90
19952;DHT22;10137;49.406;19.484;2023-04-15T15:03:14;10.30;99.90
19952;DHT22;10137;49.406;19.484;2023-04-15T15:05:44;10.40;99.90
19952;DHT22;10137;49.406;19.484;2023-04-15T15:08:13;10.30;99.90
19952;DHT22;10137;49.406;19.484;2023-04-15T15:10:41;10.50;99.90
19952;DHT22;10137;49.406;19.484;2023-04-15T15:13:10;10.50;99.90
19952;DHT22;10137;49.406;19.484;2023-04-15T15:15:38;10.40;99.90
19952;DHT22;10137;49.406;19.484;2023-04-15T15:18:07;10.50;99.90
19952;DHT22;10137;49.406;19.484;2023-04-15T15:20:36;10.40;99.90
19952;DHT22;10137;49.406;19.484;2023-04-15T15:23:04;10.40;99.90
19952;DHT22;10137;49.406;19.484;2023-04-15T15:25:33;10.30;99.90
19952;DHT22;10137;49.406;19.484;2023-04-15T15:28:01;10.40;99.90
19952;DHT22;10137;49.406;19.484;2023-04-15T15:30:29;10.50;99.90
19952;DHT22;10137;49.406;19.484;2023-04-15T15:32:58;10.50;99.90
19952;DHT22;10137;49.406;19.484;2023-04-15T15:35:26;10.50;99.90
19952;DHT22;10137;49.406;19.484;2023-04-15T15:37:56;10.50;99.90